createdAt,value
2018-05-09T00:01:26.385Z,9.80
2018-05-09T00:06:28.089Z,9.80
2018-05-09T00:11:31.594Z,9.90
2018-05-09T00:16:34.748Z,9.90
2018-05-09T00:21:36.441Z,9.90
2018-05-09T00:26:38.887Z,9.90
2018-05-09T00:31:41.739Z,9.90
2018-05-09T00:36:43.208Z,9.70
2018-05-09T00:41:45.713Z,9.70
2018-05-09T00:46:47.851Z,9.70
2018-05-09T00:51:49.291Z,9.70
2018-05-09T00:56:51.550Z,9.50
2018-05-09T01:01:56.576Z,9.60
2018-05-09T01:06:58.116Z,9.60
2018-05-09T01:11:59.504Z,9.50
2018-05-09T01:17:00.920Z,9.50
2018-05-09T01:22:02.425Z,9.50
2018-05-09T01:27:03.759Z,9.50
2018-05-09T01:32:05.329Z,9.40
2018-05-09T01:37:06.783Z,8.70
2018-05-09T01:42:08.223Z,8.70
2018-05-09T01:47:10.541Z,8.80
2018-05-09T01:52:11.966Z,8.80
2018-05-09T01:57:13.469Z,8.80
2018-05-09T02:02:14.870Z,8.90
2018-05-09T02:07:16.271Z,8.90
2018-05-09T02:12:18.551Z,8.90
2018-05-09T02:17:20.098Z,8.90
2018-05-09T02:22:21.497Z,8.90
2018-05-09T02:27:22.908Z,8.90
2018-05-09T02:32:24.331Z,8.80
2018-05-09T02:37:26.440Z,8.20
2018-05-09T02:42:27.957Z,8.20
2018-05-09T02:47:29.405Z,8.20
2018-05-09T02:52:30.763Z,8.20
2018-05-09T02:57:33.174Z,8.30
2018-05-09T03:02:34.737Z,8.40
2018-05-09T03:07:36.202Z,8.50
2018-05-09T03:12:39.613Z,8.50
2018-05-09T03:17:41.172Z,8.50
2018-05-09T03:22:42.612Z,8.50
2018-05-09T03:27:45.106Z,8.50
2018-05-09T03:32:47.481Z,8.40
2018-05-09T03:37:48.933Z,8.50
2018-05-09T03:42:50.220Z,8.40
2018-05-09T03:47:52.574Z,8.50
2018-05-09T03:52:54.365Z,8.30
2018-05-09T03:57:55.691Z,8.30
2018-05-09T04:03:09.974Z,8.40
2018-05-09T04:08:24.212Z,8.60
2018-05-09T04:13:26.334Z,8.50
2018-05-09T04:18:27.742Z,8.40
2018-05-09T04:23:29.304Z,8.60
2018-05-09T04:28:30.781Z,8.80
2018-05-09T04:33:32.250Z,8.70
2018-05-09T04:38:33.715Z,9.10
2018-05-09T04:43:35.376Z,10.50
2018-05-09T04:48:36.821Z,12.00
2018-05-09T04:53:39.201Z,13.00
2018-05-09T04:58:40.737Z,14.00
2018-05-09T05:03:42.472Z,14.80
2018-05-09T05:08:44.410Z,15.60
2018-05-09T05:13:45.898Z,16.20
2018-05-09T05:18:47.521Z,17.60
2018-05-09T05:23:49.088Z,16.40
2018-05-09T05:28:50.536Z,16.30
2018-05-09T05:33:53.692Z,15.10
2018-05-09T05:38:55.198Z,15.10
2018-05-09T05:43:56.552Z,15.40
2018-05-09T05:48:57.997Z,16.10
2018-05-09T05:53:59.397Z,18.30
2018-05-09T05:59:00.978Z,17.70
2018-05-09T06:04:04.113Z,17.90
2018-05-09T06:09:05.549Z,17.80
2018-05-09T06:14:07.710Z,17.20
2018-05-09T06:19:09.228Z,17.20
2018-05-09T06:24:10.642Z,16.70
2018-05-09T06:29:12.019Z,18.00
2018-05-09T06:34:13.498Z,18.40
2018-05-09T06:39:15.841Z,19.70
2018-05-09T06:44:17.927Z,23.20
2018-05-09T06:49:19.389Z,22.70
2018-05-09T06:54:20.830Z,23.30
2018-05-09T06:59:22.292Z,22.70
2018-05-09T07:04:24.063Z,22.80
2018-05-09T07:09:25.479Z,22.80
2018-05-09T07:14:26.944Z,21.30
2018-05-09T07:19:28.495Z,20.40
2018-05-09T07:24:30.295Z,20.10
2018-05-09T07:29:31.756Z,20.60
2018-05-09T07:34:33.244Z,20.60
2018-05-09T07:39:34.647Z,20.70
2018-05-09T07:44:36.019Z,20.50
2018-05-09T07:49:37.418Z,20.50
2018-05-09T07:54:40.691Z,20.10
2018-05-09T07:59:42.193Z,20.10
2018-05-09T08:04:43.632Z,20.20
2018-05-09T08:09:45.166Z,20.60
2018-05-09T08:14:46.668Z,19.90
2018-05-09T08:19:48.171Z,19.50
2018-05-09T08:24:50.718Z,19.70
2018-05-09T08:29:52.126Z,20.00
2018-05-09T08:34:54.618Z,20.90
2018-05-09T08:39:56.038Z,21.30
2018-05-09T08:44:57.512Z,21.70
2018-05-09T08:50:00.710Z,21.90
2018-05-09T08:55:02.083Z,21.90
2018-05-09T09:00:03.673Z,21.70
2018-05-09T09:05:06.197Z,21.70
2018-05-09T09:10:08.542Z,22.20
2018-05-09T09:15:13.580Z,22.00
2018-05-09T09:20:14.934Z,22.70
2018-05-09T09:25:16.548Z,22.50
2018-05-09T09:30:20.149Z,22.70
2018-05-09T09:35:22.621Z,22.90
2018-05-09T09:40:24.072Z,22.90
2018-05-09T09:45:25.595Z,23.00
2018-05-09T09:50:27.077Z,23.50
2018-05-09T09:55:28.575Z,23.10
2018-05-09T10:00:30.174Z,23.20
2018-05-09T10:05:32.425Z,23.60
2018-05-09T10:10:33.985Z,23.60
2018-05-09T10:15:35.833Z,23.60
2018-05-09T10:20:37.274Z,24.00
2018-05-09T10:25:38.901Z,24.40
2018-05-09T10:30:40.498Z,23.80
2018-05-09T10:35:41.922Z,25.10
2018-05-09T10:40:43.369Z,25.50
2018-05-09T10:45:44.832Z,26.70
2018-05-09T10:50:46.384Z,25.60
2018-05-09T10:55:47.831Z,25.40
2018-05-09T11:00:50.069Z,26.20
2018-05-09T11:05:51.543Z,26.20
2018-05-09T11:10:53.981Z,25.90
2018-05-09T11:15:55.596Z,25.90
2018-05-09T11:20:57.132Z,26.40
2018-05-09T11:25:59.699Z,27.30
2018-05-09T11:31:01.976Z,27.60
2018-05-09T11:36:03.519Z,27.50
2018-05-09T11:41:05.146Z,29.00
2018-05-09T11:46:06.674Z,28.50
2018-05-09T11:51:09.205Z,28.90
2018-05-09T11:56:10.709Z,28.90
2018-05-09T12:01:13.072Z,29.40
2018-05-09T12:06:14.454Z,29.60
2018-05-09T12:11:15.817Z,29.90
2018-05-09T12:16:17.255Z,29.50
2018-05-09T12:21:18.856Z,29.30
2018-05-09T12:26:20.214Z,29.00
2018-05-09T12:31:22.742Z,28.20
2018-05-09T12:36:25.939Z,29.60
2018-05-09T12:41:30.783Z,29.50
2018-05-09T12:46:33.184Z,29.10
2018-05-09T12:51:34.479Z,29.10
2018-05-09T12:56:35.841Z,29.80
2018-05-09T13:01:37.285Z,29.70
2018-05-09T13:06:41.601Z,30.00
2018-05-09T13:11:43.729Z,29.90
2018-05-09T13:16:45.351Z,29.80
2018-05-09T13:21:48.519Z,30.50
2018-05-09T13:26:49.891Z,30.40
2018-05-09T13:31:51.320Z,30.20
2018-05-09T13:36:52.845Z,28.50
2018-05-09T13:41:56.105Z,26.70
2018-05-09T13:46:58.609Z,26.60
2018-05-09T13:51:59.925Z,27.60
2018-05-09T13:57:05.864Z,30.30
2018-05-09T14:02:07.444Z,30.20
2018-05-09T14:07:08.910Z,30.10
2018-05-09T14:12:10.437Z,29.90
2018-05-09T14:17:11.987Z,29.50
2018-05-09T14:22:13.572Z,29.90
2018-05-09T14:27:16.113Z,29.50
2018-05-09T14:32:17.650Z,28.80
2018-05-09T14:37:22.414Z,28.50
2018-05-09T14:42:24.687Z,32.50
2018-05-09T14:47:26.143Z,32.50
2018-05-09T14:52:27.657Z,35.50
2018-05-09T14:57:29.955Z,34.30
2018-05-09T15:02:32.376Z,34.30
2018-05-09T15:07:33.830Z,36.40
2018-05-09T15:12:35.169Z,35.60
2018-05-09T15:17:36.521Z,34.80
2018-05-09T15:22:38.773Z,35.10
2018-05-09T15:27:40.291Z,35.20
2018-05-09T15:32:43.859Z,36.60
2018-05-09T15:37:45.318Z,36.90
2018-05-09T15:42:46.946Z,34.80
2018-05-09T15:47:49.707Z,34.80
2018-05-09T15:52:51.115Z,32.30
2018-05-09T15:57:52.484Z,32.70
2018-05-09T16:02:53.915Z,33.00
2018-05-09T16:07:55.448Z,33.90
2018-05-09T16:12:56.954Z,35.80
2018-05-09T16:17:58.483Z,36.70
2018-05-09T16:23:00.266Z,37.90
2018-05-09T16:28:03.494Z,36.80
2018-05-09T16:33:05.133Z,36.80
2018-05-09T16:38:06.612Z,35.70
2018-05-09T16:43:08.244Z,34.10
2018-05-09T16:48:10.722Z,33.80
2018-05-09T16:53:13.364Z,33.10
2018-05-09T16:58:15.614Z,34.70
2018-05-09T17:03:17.950Z,34.90
2018-05-09T17:08:21.506Z,34.90
2018-05-09T17:13:23.058Z,34.40
2018-05-09T17:18:24.647Z,33.70
2018-05-09T17:23:26.147Z,31.90
2018-05-09T17:28:28.379Z,30.80
2018-05-09T17:33:29.851Z,30.70
2018-05-09T17:38:31.461Z,30.90
2018-05-09T17:43:33.088Z,31.30
2018-05-09T17:48:35.501Z,30.80
2018-05-09T17:53:37.118Z,30.90
2018-05-09T17:58:38.710Z,31.10
2018-05-09T18:03:40.311Z,30.10
2018-05-09T18:08:41.768Z,29.40
2018-05-09T18:13:43.104Z,28.10
2018-05-09T18:18:44.635Z,27.70
2018-05-09T18:23:46.169Z,26.80
2018-05-09T18:28:47.667Z,26.10
2018-05-09T18:33:50.081Z,25.30
2018-05-09T18:38:52.597Z,24.00
2018-05-09T18:43:53.999Z,22.80
2018-05-09T18:48:55.347Z,21.70
2018-05-09T18:53:56.684Z,20.60
2018-05-09T18:58:58.022Z,19.60
2018-05-09T19:04:00.079Z,17.80
2018-05-09T19:09:02.163Z,17.40
2018-05-09T19:14:03.519Z,17.30
2018-05-09T19:19:07.631Z,16.80
2018-05-09T19:24:09.004Z,16.70
2018-05-09T19:29:10.331Z,16.60
2018-05-09T19:34:12.373Z,15.50
2018-05-09T19:39:15.643Z,15.40
2018-05-09T19:44:17.045Z,15.20
2018-05-09T19:49:18.379Z,15.10
2018-05-09T19:54:19.723Z,15.00
2018-05-09T19:59:21.161Z,14.80
2018-05-09T20:04:22.669Z,14.70
2018-05-09T20:09:24.107Z,14.60
2018-05-09T20:14:25.676Z,14.50
2018-05-09T20:19:27.067Z,14.50
2018-05-09T20:24:28.327Z,14.40
2018-05-09T20:29:29.899Z,14.10
2018-05-09T20:34:31.336Z,14.00
2018-05-09T20:39:33.717Z,13.80
2018-05-09T20:44:35.155Z,13.60
2018-05-09T20:49:37.512Z,13.50
2018-05-09T20:54:40.602Z,13.70
2018-05-09T20:59:41.978Z,13.60
2018-05-09T21:04:43.309Z,13.80
2018-05-09T21:09:44.704Z,13.90
2018-05-09T21:14:46.203Z,14.00
2018-05-09T21:19:47.593Z,14.10
2018-05-09T21:24:48.971Z,14.20
2018-05-09T21:29:51.365Z,14.20
2018-05-09T21:34:52.851Z,14.20
2018-05-09T21:39:55.062Z,14.20
2018-05-09T21:44:56.385Z,14.20
2018-05-09T21:49:57.865Z,14.00
2018-05-09T21:55:00.282Z,14.00
2018-05-09T22:00:02.779Z,13.80
2018-05-09T22:05:04.500Z,13.60
2018-05-09T22:10:06.098Z,13.30
2018-05-09T22:15:07.584Z,13.30
2018-05-09T22:20:09.041Z,13.20
2018-05-09T22:25:10.427Z,13.00
2018-05-09T22:30:11.778Z,12.90
2018-05-09T22:35:13.174Z,13.00
2018-05-09T22:40:16.691Z,12.40
2018-05-09T22:45:18.622Z,12.40
2018-05-09T22:50:20.198Z,12.40
2018-05-09T22:55:21.733Z,12.60
2018-05-09T23:00:23.963Z,12.90
2018-05-09T23:05:27.146Z,12.90
2018-05-09T23:10:28.630Z,13.10
2018-05-09T23:15:31.922Z,13.30
2018-05-09T23:20:33.498Z,13.30
2018-05-09T23:25:34.943Z,13.70
2018-05-09T23:30:37.135Z,13.70
2018-05-09T23:35:39.299Z,13.60
2018-05-09T23:40:41.956Z,13.70
2018-05-09T23:45:44.164Z,13.70
2018-05-09T23:50:45.691Z,13.60
2018-05-09T23:55:47.231Z,13.70
